Time;durP1;ratioP1;P1;durP2;ratioP2;P2;SDS_P1;SDS_P2;PMS_P1;PMS_P2;Temp;Humidity;BMP_temperature;BMP_pressure;BME280_temperature;BME280_humidity;BME280_pressure;Samples;Min_cycle;Max_cycle;Signal;HPM_P1;HPM_P2
2023/03/03 00:00:24;;;;;;;3.42;0.75;;;2.80;99.90;;;;;;5016854;28;20046;-83
2023/03/03 00:03:16;;;;;;;3.15;0.90;;;2.80;99.90;;;;;;4992382;28;20065;-83
2023/03/03 00:06:04;;;;;;;4.53;1.00;;;2.80;99.90;;;;;;5010114;28;20406;-83
2023/03/03 00:08:51;;;;;;;4.95;1.35;;;2.80;99.90;;;;;;5009939;28;20057;-82
2023/03/03 00:11:37;;;;;;;6.18;0.95;;;2.80;99.90;;;;;;5010286;28;20046;-83
2023/03/03 00:14:28;;;;;;;5.47;0.82;;;2.90;99.90;;;;;;4998248;28;20045;-83
2023/03/03 00:17:20;;;;;;;8.25;1.00;;;2.90;99.90;;;;;;4997631;28;20578;-82
2023/03/03 00:20:51;;;;;;;7.25;0.90;;;2.90;99.90;;;;;;5009201;28;20597;-83
2023/03/03 00:23:41;;;;;;;7.03;1.48;;;2.90;99.90;;;;;;4993282;28;20049;-83
2023/03/03 00:26:35;;;;;;;7.78;0.90;;;2.90;99.90;;;;;;5009884;28;20196;-83
2023/03/03 00:29:40;;;;;;;4.57;0.80;;;2.90;99.90;;;;;;5011402;28;20494;-83
2023/03/03 00:32:29;;;;;;;7.00;1.40;;;2.80;99.90;;;;;;5018397;28;20081;-83
2023/03/03 00:35:29;;;;;;;8.05;0.80;;;2.80;99.90;;;;;;4995802;28;20136;-83
2023/03/03 00:38:19;;;;;;;3.47;0.80;;;2.80;99.90;;;;;;5013635;28;20049;-82
2023/03/03 00:41:34;;;;;;;5.38;0.90;;;2.80;99.90;;;;;;5013892;28;20046;-84
2023/03/03 00:44:41;;;;;;;5.90;1.00;;;2.80;99.90;;;;;;5013367;28;20061;-83
2023/03/03 00:47:27;;;;;;;8.88;0.95;;;2.70;99.90;;;;;;5014317;28;20049;-84
2023/03/03 00:50:27;;;;;;;8.05;1.30;;;2.70;99.90;;;;;;5018894;28;20060;-84
2023/03/03 00:53:16;;;;;;;13.45;1.33;;;2.70;99.90;;;;;;5012871;28;20461;-83
2023/03/03 00:56:02;;;;;;;4.38;0.70;;;2.70;99.90;;;;;;5014376;28;20439;-84
2023/03/03 00:58:49;;;;;;;3.10;0.70;;;2.60;99.90;;;;;;4983184;28;20065;-83
2023/03/03 01:01:35;;;;;;;3.85;1.00;;;2.70;99.90;;;;;;5012768;28;20589;-83
2023/03/03 01:04:21;;;;;;;6.80;0.90;;;2.60;99.90;;;;;;5012115;28;20089;-83
2023/03/03 01:07:07;;;;;;;10.00;1.85;;;2.60;99.90;;;;;;4998670;28;20050;-83
2023/03/03 01:09:53;;;;;;;6.63;0.95;;;2.60;99.90;;;;;;5014730;28;20516;-83
2023/03/03 01:12:39;;;;;;;5.05;1.00;;;2.60;99.90;;;;;;4995509;28;20053;-82
2023/03/03 01:15:25;;;;;;;8.40;1.13;;;2.50;99.90;;;;;;4995569;28;20096;-82
2023/03/03 01:18:12;;;;;;;3.47;0.75;;;2.50;99.90;;;;;;4982053;28;20093;-83
2023/03/03 01:21:00;;;;;;;3.83;0.80;;;2.40;99.90;;;;;;4981353;28;20045;-82
2023/03/03 01:23:46;;;;;;;10.88;2.15;;;2.40;99.90;;;;;;5013024;28;20058;-84
2023/03/03 01:26:32;;;;;;;4.95;0.80;;;2.40;99.90;;;;;;5013858;28;20136;-82
2023/03/03 01:29:19;;;;;;;8.75;1.10;;;2.40;99.90;;;;;;5013685;28;20057;-83
2023/03/03 01:32:05;;;;;;;10.38;2.10;;;2.40;99.90;;;;;;4995304;28;20050;-82
2023/03/03 01:34:51;;;;;;;9.30;0.82;;;2.30;99.90;;;;;;5012088;28;20057;-83
2023/03/03 01:37:38;;;;;;;4.13;0.93;;;2.30;99.90;;;;;;4999148;28;20107;-82
2023/03/03 01:40:26;;;;;;;5.22;0.90;;;2.30;99.90;;;;;;5012788;28;20128;-83
2023/03/03 01:43:14;;;;;;;3.13;0.68;;;2.30;99.90;;;;;;4997880;28;20140;-83
2023/03/03 01:46:00;;;;;;;4.68;0.93;;;2.20;99.90;;;;;;4994769;28;20069;-82
2023/03/03 01:48:47;;;;;;;6.78;1.65;;;2.20;99.90;;;;;;5012077;28;20513;-82
2023/03/03 01:51:37;;;;;;;6.95;0.65;;;2.20;99.90;;;;;;4995306;28;20497;-82
2023/03/03 01:54:37;;;;;;;5.63;1.02;;;2.20;99.90;;;;;;5012559;28;20132;-82
2023/03/03 01:57:30;;;;;;;8.38;1.10;;;2.20;99.90;;;;;;5013672;28;20678;-82
2023/03/03 02:00:17;;;;;;;6.70;1.00;;;2.20;99.90;;;;;;5014772;28;20442;-83
2023/03/03 02:03:04;;;;;;;8.27;0.90;;;2.20;99.90;;;;;;4997639;28;20042;-82
2023/03/03 02:05:53;;;;;;;5.88;1.02;;;2.20;99.90;;;;;;5012865;28;20045;-84
2023/03/03 02:09:00;;;;;;;7.57;0.90;;;2.30;99.90;;;;;;5012252;28;20564;-83
2023/03/03 02:11:50;;;;;;;12.43;1.35;;;2.30;99.90;;;;;;5012089;28;20053;-83
2023/03/03 02:14:36;;;;;;;7.35;0.88;;;2.30;99.90;;;;;;4998498;28;20046;-84
2023/03/03 02:17:22;;;;;;;11.35;1.05;;;2.30;99.90;;;;;;5015554;28;20042;-84
2023/03/03 02:20:27;;;;;;;6.05;1.58;;;2.40;99.90;;;;;;5011391;28;20077;-84
2023/03/03 02:23:19;;;;;;;7.88;0.93;;;2.40;99.90;;;;;;5011303;28;20096;-82
2023/03/03 02:26:21;;;;;;;9.10;1.20;;;2.40;99.90;;;;;;4993857;28;20481;-83
2023/03/03 02:29:09;;;;;;;4.00;1.00;;;2.40;99.90;;;;;;4994630;28;20054;-82
2023/03/03 02:31:55;;;;;;;7.53;0.60;;;2.50;99.90;;;;;;5012039;28;20061;-82
2023/03/03 02:34:51;;;;;;;4.43;0.90;;;2.50;99.90;;;;;;5014875;28;20073;-83
2023/03/03 02:37:37;;;;;;;9.15;1.25;;;2.50;99.90;;;;;;5011093;28;20111;-84
2023/03/03 02:40:26;;;;;;;5.80;1.80;;;2.60;99.90;;;;;;5011759;28;20056;-83
2023/03/03 02:43:17;;;;;;;12.23;1.20;;;2.60;99.90;;;;;;5011652;28;20056;-83
2023/03/03 02:46:03;;;;;;;7.45;1.20;;;2.70;99.90;;;;;;5011015;28;20049;-83
2023/03/03 02:48:49;;;;;;;6.03;0.90;;;2.70;99.90;;;;;;5011873;28;20061;-82
2023/03/03 02:51:36;;;;;;;4.75;0.68;;;2.70;99.90;;;;;;5003259;28;20050;-84
2023/03/03 02:54:24;;;;;;;4.05;1.27;;;2.80;99.90;;;;;;5012210;28;20084;-84
2023/03/03 02:57:11;;;;;;;8.38;0.95;;;2.80;99.90;;;;;;4997442;28;20061;-83
2023/03/03 02:59:57;;;;;;;4.65;0.73;;;2.80;99.90;;;;;;5012110;28;20466;-83
2023/03/03 03:02:43;;;;;;;4.25;0.80;;;2.80;99.90;;;;;;5010819;28;20524;-83
2023/03/03 03:05:29;;;;;;;7.80;1.05;;;2.80;99.90;;;;;;5010867;28;20130;-83
2023/03/03 03:08:15;;;;;;;5.40;0.90;;;2.80;99.90;;;;;;5013348;28;20486;-83
2023/03/03 03:11:02;;;;;;;12.60;2.63;;;2.80;99.90;;;;;;5020694;28;20054;-83
2023/03/03 03:13:48;;;;;;;7.38;0.93;;;2.80;99.90;;;;;;5017785;28;20050;-82
2023/03/03 03:16:34;;;;;;;3.95;0.85;;;2.80;99.90;;;;;;5010606;28;20524;-83
2023/03/03 03:19:20;;;;;;;4.85;0.82;;;2.80;99.90;;;;;;5010663;28;20056;-83
2023/03/03 03:22:07;;;;;;;6.03;0.63;;;2.80;99.90;;;;;;5011285;28;20422;-83
2023/03/03 03:24:53;;;;;;;4.10;0.80;;;2.80;99.90;;;;;;5010484;28;20387;-84
2023/03/03 03:27:39;;;;;;;5.95;0.77;;;2.80;99.90;;;;;;4997811;28;20053;-83
2023/03/03 03:30:25;;;;;;;9.05;1.10;;;2.80;99.90;;;;;;5011520;28;20089;-83
2023/03/03 03:33:11;;;;;;;4.28;0.80;;;2.80;99.90;;;;;;5010598;28;20088;-82
2023/03/03 03:35:58;;;;;;;7.03;1.65;;;2.70;99.90;;;;;;5010506;28;20143;-83
2023/03/03 03:38:44;;;;;;;7.43;1.08;;;2.70;99.90;;;;;;5010830;28;20123;-83
2023/03/03 03:41:30;;;;;;;4.18;0.70;;;2.70;99.90;;;;;;5019431;28;20046;-84
2023/03/03 03:44:16;;;;;;;6.25;0.63;;;2.70;99.90;;;;;;5011241;28;20081;-83
2023/03/03 03:47:02;;;;;;;5.32;0.68;;;2.70;99.90;;;;;;5010164;28;20134;-84
2023/03/03 03:49:48;;;;;;;6.88;0.80;;;2.60;99.90;;;;;;5010009;28;20056;-83
2023/03/03 03:52:34;;;;;;;2.88;0.98;;;2.60;99.90;;;;;;4995308;28;20200;-83
2023/03/03 03:55:21;;;;;;;3.95;1.08;;;2.60;99.90;;;;;;5009952;28;20050;-84
2023/03/03 03:58:11;;;;;;;5.15;0.77;;;2.60;99.90;;;;;;4987718;28;20042;-83
2023/03/03 04:01:03;;;;;;;5.80;0.77;;;2.60;99.90;;;;;;5010865;28;20085;-83
2023/03/03 04:03:49;;;;;;;4.20;0.57;;;2.60;99.90;;;;;;4996253;28;20152;-83
2023/03/03 04:06:35;;;;;;;5.57;1.30;;;2.60;99.90;;;;;;5010495;28;20053;-83
2023/03/03 04:09:21;;;;;;;9.18;2.17;;;2.60;99.90;;;;;;5011589;28;20054;-84
2023/03/03 04:12:07;;;;;;;5.68;1.73;;;2.60;99.90;;;;;;4993952;28;20060;-83
2023/03/03 04:14:53;;;;;;;5.68;0.90;;;2.60;99.90;;;;;;4994912;28;20084;-81
2023/03/03 04:17:40;;;;;;;8.77;0.90;;;2.60;99.90;;;;;;5017239;28;20046;-84
2023/03/03 04:20:26;;;;;;;5.22;0.70;;;2.60;99.90;;;;;;5009792;28;20046;-85
2023/03/03 04:23:13;;;;;;;10.20;1.30;;;2.50;99.90;;;;;;5009708;28;20057;-83
2023/03/03 04:25:59;;;;;;;8.13;1.58;;;2.60;99.90;;;;;;5009546;28;20060;-84
2023/03/03 04:28:45;;;;;;;11.18;1.73;;;2.50;99.90;;;;;;5009598;28;20524;-84
2023/03/03 04:31:31;;;;;;;3.60;0.88;;;2.50;99.90;;;;;;5009890;28;20096;-84
2023/03/03 04:34:17;;;;;;;7.22;1.20;;;2.60;99.90;;;;;;5014778;28;20049;-84
2023/03/03 04:37:03;;;;;;;11.63;1.38;;;2.60;99.90;;;;;;4992201;28;20082;-83
2023/03/03 04:39:49;;;;;;;9.20;0.90;;;2.60;99.90;;;;;;4991856;28;20494;-84
2023/03/03 04:42:36;;;;;;;7.88;1.30;;;2.60;99.90;;;;;;5010082;28;20046;-83
2023/03/03 04:45:22;;;;;;;11.68;1.10;;;2.60;99.90;;;;;;5010010;28;20042;-83
2023/03/03 04:48:08;;;;;;;3.75;0.75;;;2.60;99.90;;;;;;4992799;28;20064;-83
2023/03/03 04:50:54;;;;;;;4.25;0.80;;;2.60;99.90;;;;;;5013517;28;20061;-84
2023/03/03 04:53:40;;;;;;;6.85;1.20;;;2.50;99.90;;;;;;5009247;28;20191;-84
2023/03/03 04:56:27;;;;;;;6.50;1.00;;;2.50;99.90;;;;;;5009071;28;20156;-83
2023/03/03 04:59:14;;;;;;;8.18;1.13;;;2.50;99.90;;;;;;5009214;28;20106;-84
2023/03/03 05:02:00;;;;;;;2.90;0.75;;;2.50;99.90;;;;;;5008802;28;20050;-82
2023/03/03 05:04:46;;;;;;;10.40;1.33;;;2.50;99.90;;;;;;5010122;28;20398;-83
2023/03/03 05:07:32;;;;;;;8.07;1.48;;;2.50;99.90;;;;;;5012713;28;20053;-83
2023/03/03 05:10:19;;;;;;;7.05;1.60;;;2.50;99.90;;;;;;4991585;28;20053;-84
2023/03/03 05:13:06;;;;;;;7.53;1.17;;;2.40;99.90;;;;;;5009106;28;20050;-83
2023/03/03 05:15:54;;;;;;;6.90;2.15;;;2.40;99.90;;;;;;5010623;28;20053;-83
2023/03/03 05:18:40;;;;;;;5.43;1.25;;;2.30;99.90;;;;;;5013351;28;20287;-83
2023/03/03 05:21:26;;;;;;;6.47;1.10;;;2.30;99.90;;;;;;5012285;28;20054;-83
2023/03/03 05:24:13;;;;;;;11.05;1.38;;;2.20;99.90;;;;;;5001330;28;20072;-82
2023/03/03 05:26:59;;;;;;;9.13;2.65;;;2.10;99.90;;;;;;5017796;28;20136;-83
2023/03/03 05:29:45;;;;;;;6.82;1.45;;;2.10;99.90;;;;;;4995471;28;20060;-82
2023/03/03 05:32:32;;;;;;;5.47;1.00;;;2.00;99.90;;;;;;4994998;28;20060;-83
2023/03/03 05:35:19;;;;;;;8.50;1.80;;;2.00;99.90;;;;;;5012236;28;20485;-82
2023/03/03 05:38:05;;;;;;;7.43;1.55;;;1.90;99.90;;;;;;4995171;28;20080;-83
2023/03/03 05:40:51;;;;;;;6.30;1.33;;;2.00;99.90;;;;;;5013189;28;20517;-83
2023/03/03 05:43:38;;;;;;;11.13;1.13;;;2.00;99.90;;;;;;4989755;28;20145;-83
2023/03/03 05:46:24;;;;;;;6.07;1.27;;;2.10;99.90;;;;;;4996071;28;20093;-83
2023/03/03 05:49:10;;;;;;;8.93;1.90;;;2.20;99.90;;;;;;4998485;28;20050;-84
2023/03/03 05:51:56;;;;;;;5.03;0.98;;;2.20;99.90;;;;;;5011688;28;20049;-83
2023/03/03 05:54:42;;;;;;;4.15;1.10;;;2.30;99.90;;;;;;4997225;28;20487;-83
2023/03/03 05:57:28;;;;;;;9.23;1.60;;;2.30;99.90;;;;;;4994450;28;20402;-82
2023/03/03 06:00:15;;;;;;;6.43;1.40;;;2.30;99.90;;;;;;5017260;28;20041;-83
2023/03/03 06:03:01;;;;;;;4.90;1.65;;;2.30;99.90;;;;;;4998612;28;20058;-83
2023/03/03 06:05:47;;;;;;;5.65;1.00;;;2.30;99.90;;;;;;4994743;28;20053;-83
2023/03/03 06:08:34;;;;;;;10.82;1.30;;;2.30;99.90;;;;;;4997457;28;20042;-83
2023/03/03 06:11:20;;;;;;;4.35;0.93;;;2.30;99.90;;;;;;5012806;28;20050;-83
2023/03/03 06:14:07;;;;;;;6.85;1.00;;;2.40;99.90;;;;;;5012593;28;20050;-82
2023/03/03 06:16:53;;;;;;;12.13;1.25;;;2.40;99.90;;;;;;5012897;28;20053;-82
2023/03/03 06:19:40;;;;;;;7.18;1.13;;;2.50;99.90;;;;;;5018232;28;20049;-83
2023/03/03 06:22:26;;;;;;;8.68;1.00;;;2.50;99.90;;;;;;4999861;28;20061;-83
2023/03/03 06:25:13;;;;;;;4.22;1.05;;;2.50;99.90;;;;;;5014140;28;20058;-84
2023/03/03 06:27:59;;;;;;;4.95;1.55;;;2.50;99.90;;;;;;4997538;28;20068;-84
2023/03/03 06:30:45;;;;;;;7.35;1.65;;;2.50;99.90;;;;;;5014686;28;20045;-82
2023/03/03 06:33:31;;;;;;;4.75;0.85;;;2.50;99.90;;;;;;5015359;28;20049;-82
2023/03/03 06:36:18;;;;;;;6.18;1.65;;;2.40;99.90;;;;;;5014606;28;20053;-81
2023/03/03 06:39:04;;;;;;;5.13;0.90;;;2.40;99.90;;;;;;5017815;28;20046;-82
2023/03/03 06:41:50;;;;;;;6.68;1.20;;;2.40;99.90;;;;;;5012814;28;20049;-82
2023/03/03 06:44:36;;;;;;;3.22;0.93;;;2.30;99.90;;;;;;5011552;28;20119;-82
2023/03/03 06:47:22;;;;;;;8.00;1.10;;;2.30;99.90;;;;;;5011600;28;20092;-84
2023/03/03 06:50:11;;;;;;;4.47;0.90;;;2.20;99.90;;;;;;5011192;28;20076;-84
2023/03/03 06:53:18;;;;;;;7.95;1.13;;;2.20;99.90;;;;;;4996358;28;20042;-82
2023/03/03 06:56:08;;;;;;;5.38;1.58;;;2.20;99.90;;;;;;5014034;28;20054;-83
2023/03/03 06:58:59;;;;;;;4.25;0.80;;;2.20;99.90;;;;;;5010271;28;20053;-81
2023/03/03 07:01:48;;;;;;;5.97;1.50;;;2.20;99.90;;;;;;4995910;28;20046;-82
2023/03/03 07:04:34;;;;;;;6.40;1.55;;;2.10;99.90;;;;;;5011163;28;20089;-82
2023/03/03 07:07:23;;;;;;;10.32;1.85;;;2.10;99.90;;;;;;4996401;28;20050;-82
2023/03/03 07:10:21;;;;;;;5.60;1.38;;;2.10;99.90;;;;;;5012725;28;20540;-82
2023/03/03 07:13:33;;;;;;;5.90;1.30;;;2.30;99.90;;;;;;5012848;28;20046;-82
2023/03/03 07:16:25;;;;;;;10.20;1.88;;;2.40;99.90;;;;;;5010540;28;20128;-82
2023/03/03 07:19:19;;;;;;;7.50;1.30;;;2.50;99.90;;;;;;5010609;28;20046;-82
2023/03/03 07:22:17;;;;;;;7.65;1.60;;;2.50;99.90;;;;;;5011601;28;20418;-83
2023/03/03 07:25:24;;;;;;;13.82;1.95;;;2.70;99.90;;;;;;5011072;28;20074;-82
2023/03/03 07:28:26;;;;;;;12.68;2.75;;;2.80;99.90;;;;;;5011429;28;20169;-82
2023/03/03 07:31:41;;;;;;;6.95;1.30;;;2.90;99.90;;;;;;4996188;28;20046;-82
2023/03/03 07:34:36;;;;;;;10.75;1.70;;;3.20;99.90;;;;;;5011638;28;20397;-82
2023/03/03 07:37:30;;;;;;;;;;;3.30;99.90;;;;;;5012024;28;20075;-83
2023/03/03 07:40:37;;;;;;;6.45;0.90;;;3.40;99.90;;;;;;5009928;28;20089;-82
2023/03/03 07:43:44;;;;;;;2.50;0.77;;;3.60;99.90;;;;;;5010901;28;20486;-83
2023/03/03 07:46:44;;;;;;;6.28;0.75;;;3.80;99.90;;;;;;5011646;28;20093;-83
2023/03/03 07:49:35;;;;;;;6.43;0.80;;;3.90;99.90;;;;;;4997659;28;20050;-83
2023/03/03 07:52:42;;;;;;;8.70;1.20;;;4.10;99.90;;;;;;5010518;28;20490;-84
2023/03/03 07:55:36;;;;;;;3.15;1.50;;;4.30;99.90;;;;;;4994445;28;20054;-83
2023/03/03 07:58:34;;;;;;;2.70;1.13;;;4.40;99.90;;;;;;4981797;28;20057;-83
2023/03/03 08:01:33;;;;;;;9.43;1.15;;;4.50;99.90;;;;;;5011967;28;20058;-84
2023/03/03 08:04:23;;;;;;;3.45;0.95;;;4.60;99.90;;;;;;4996345;28;20053;-84
2023/03/03 08:07:17;;;;;;;5.53;0.50;;;4.70;99.90;;;;;;5010573;28;20133;-83
2023/03/03 08:10:42;;;;;;;6.13;0.52;;;4.80;99.90;;;;;;5010988;28;20049;-84
2023/03/03 08:13:36;;;;;;;5.25;0.68;;;4.90;99.90;;;;;;4994411;28;20048;-84
2023/03/03 08:16:37;;;;;;;2.13;0.70;;;5.00;99.90;;;;;;4996668;28;20065;-83
2023/03/03 08:19:24;;;;;;;2.20;0.60;;;5.20;99.90;;;;;;5011196;28;20383;-83
2023/03/03 08:22:23;;;;;;;6.20;0.50;;;5.30;99.90;;;;;;5010784;28;20445;-84
2023/03/03 08:25:09;;;;;;;3.78;0.38;;;5.40;99.90;;;;;;4992825;28;20073;-82
2023/03/03 08:27:55;;;;;;;4.18;0.63;;;5.50;99.90;;;;;;5011438;28;20057;-85
2023/03/03 08:30:42;;;;;;;3.75;0.60;;;5.50;99.90;;;;;;5010615;28;20057;-84
2023/03/03 08:33:28;;;;;;;5.15;0.60;;;5.60;99.90;;;;;;5011438;28;20050;-84
2023/03/03 08:36:14;;;;;;;2.42;0.40;;;5.70;99.90;;;;;;5011462;28;20050;-84
2023/03/03 08:39:02;;;;;;;2.63;0.55;;;5.70;99.90;;;;;;4993593;28;20208;-83
2023/03/03 08:41:48;;;;;;;3.60;0.57;;;5.80;99.90;;;;;;5012407;28;20049;-84
2023/03/03 08:44:36;;;;;;;7.05;0.73;;;5.80;99.90;;;;;;5012075;28;20045;-84
2023/03/03 08:47:22;;;;;;;3.67;0.70;;;5.90;99.90;;;;;;5013553;28;20046;-84
2023/03/03 08:50:09;;;;;;;4.28;0.43;;;6.00;99.90;;;;;;5015664;28;20100;-85
2023/03/03 08:52:56;;;;;;;5.32;1.10;;;6.10;99.90;;;;;;4993974;28;20058;-85
2023/03/03 08:55:42;;;;;;;3.10;0.80;;;6.10;99.90;;;;;;4998033;28;20407;-85
2023/03/03 08:58:28;;;;;;;7.93;0.80;;;6.20;99.90;;;;;;4996990;28;20072;-84
2023/03/03 09:01:15;;;;;;;1.90;0.47;;;6.30;99.90;;;;;;4981335;28;20054;-85
2023/03/03 09:04:01;;;;;;;4.82;0.95;;;6.30;99.90;;;;;;4996494;28;20046;-84
2023/03/03 09:06:50;;;;;;;2.35;0.50;;;6.40;99.90;;;;;;4994578;28;20066;-83
2023/03/03 09:09:37;;;;;;;4.80;0.60;;;6.50;99.90;;;;;;4994068;28;20422;-84
2023/03/03 09:12:34;;;;;;;1.88;0.73;;;6.60;99.90;;;;;;4993916;28;20046;-84
2023/03/03 09:15:33;;;;;;;5.20;0.57;;;6.70;99.90;;;;;;4995560;28;20495;-84
2023/03/03 09:18:24;;;;;;;5.85;0.88;;;6.70;99.90;;;;;;4993806;28;20054;-84
2023/03/03 09:21:24;;;;;;;3.30;0.70;;;6.70;99.90;;;;;;4992564;28;20154;-84
2023/03/03 09:24:26;;;;;;;3.75;0.80;;;6.70;99.90;;;;;;4995862;28;20121;-84
2023/03/03 09:27:39;;;;;;;4.15;0.70;;;6.70;99.90;;;;;;4996994;28;20065;-83
2023/03/03 09:30:25;;;;;;;5.93;0.93;;;6.70;99.90;;;;;;4995653;28;20089;-83
2023/03/03 09:33:26;;;;;;;4.93;0.90;;;6.60;99.90;;;;;;4992105;28;20120;-83
2023/03/03 09:36:36;;;;;;;7.15;1.02;;;6.70;99.90;;;;;;4993438;28;20073;-83
2023/03/03 09:39:25;;;;;;;4.53;0.93;;;6.70;99.90;;;;;;4993175;28;20050;-83
2023/03/03 09:42:17;;;;;;;3.75;0.73;;;6.80;99.90;;;;;;4992973;28;20050;-83
2023/03/03 09:45:16;;;;;;;4.90;0.70;;;6.80;99.90;;;;;;4992736;28;20050;-83
2023/03/03 09:48:05;;;;;;;3.17;0.60;;;6.80;99.90;;;;;;4993382;28;20160;-83
2023/03/03 09:51:07;;;;;;;5.82;0.77;;;6.90;99.90;;;;;;4992819;28;20077;-83
2023/03/03 09:54:10;;;;;;;12.15;1.00;;;6.90;99.90;;;;;;4992272;28;20480;-83
2023/03/03 09:57:29;;;;;;;3.83;0.70;;;7.10;99.90;;;;;;4991721;28;20141;-83
2023/03/03 10:00:24;;;;;;;12.05;1.70;;;7.20;99.90;;;;;;4994737;28;20589;-83
2023/03/03 10:03:16;;;;;;;4.03;1.15;;;7.40;99.90;;;;;;4992527;28;20058;-84
2023/03/03 10:06:28;;;;;;;5.88;0.85;;;7.80;99.90;;;;;;4991889;28;20058;-83
2023/03/03 10:09:47;;;;;;;6.45;0.82;;;8.10;99.90;;;;;;4980959;28;20469;-83
2023/03/03 10:13:05;;;;;;;3.58;0.82;;;8.20;99.90;;;;;;4977241;28;20061;-84
2023/03/03 10:16:19;;;;;;;6.45;0.85;;;8.20;99.90;;;;;;4990920;28;20054;-83
2023/03/03 10:19:41;;;;;;;4.05;0.57;;;8.20;99.90;;;;;;4992347;28;20061;-83
2023/03/03 10:22:49;;;;;;;4.75;0.63;;;8.30;99.90;;;;;;4992641;28;20042;-83
2023/03/03 10:25:54;;;;;;;4.63;0.60;;;8.50;99.90;;;;;;4977056;28;20494;-83
2023/03/03 10:28:55;;;;;;;5.80;1.17;;;8.50;99.90;;;;;;4993355;28;20050;-84
2023/03/03 10:32:02;;;;;;;3.53;0.70;;;8.70;99.90;;;;;;4993763;28;20738;-83
2023/03/03 10:35:25;;;;;;;5.95;1.42;;;9.00;99.90;;;;;;4992465;28;20402;-83
2023/03/03 10:38:24;;;;;;;5.60;0.65;;;9.20;99.90;;;;;;4977331;28;20057;-83
2023/03/03 10:41:25;;;;;;;5.60;0.50;;;9.40;99.90;;;;;;4977879;28;20054;-83
2023/03/03 10:44:24;;;;;;;3.22;0.68;;;9.30;99.90;;;;;;4991651;28;20062;-84
2023/03/03 10:47:34;;;;;;;5.30;0.80;;;9.30;99.90;;;;;;4991053;28;20042;-84
2023/03/03 10:50:49;;;;;;;3.20;0.52;;;9.40;99.90;;;;;;4990249;28;20054;-83
2023/03/03 10:53:56;;;;;;;6.03;0.90;;;9.30;99.90;;;;;;4971127;28;20057;-83
2023/03/03 10:57:02;;;;;;;3.60;0.60;;;9.20;99.90;;;;;;4972671;28;20090;-83
2023/03/03 10:59:51;;;;;;;;;;;9.20;99.90;;;;;;4967968;28;20057;-84
2023/03/03 11:02:45;;;;;;;4.65;0.80;;;9.20;99.90;;;;;;4972403;28;19928;-83
2023/03/03 11:06:17;;;;;;;4.80;0.63;;;9.20;99.90;;;;;;4972607;28;20059;-84
2023/03/03 11:09:33;;;;;;;13.02;1.38;;;9.30;99.90;;;;;;4948730;29;20054;-84
2023/03/03 11:12:44;;;;;;;;;;;9.30;99.90;;;;;;4950229;28;20090;-83
2023/03/03 11:15:38;;;;;;;10.25;3.38;;;9.30;99.90;;;;;;4972313;28;19922;-84
2023/03/03 11:18:45;;;;;;;9.65;1.60;;;9.30;99.90;;;;;;4963899;28;20137;-84
2023/03/03 11:21:39;;;;;;;8.00;1.13;;;9.50;99.90;;;;;;4972185;28;20138;-85
2023/03/03 11:24:49;;;;;;;7.30;2.50;;;9.50;99.90;;;;;;4972420;28;20484;-83
2023/03/03 11:28:13;;;;;;;9.95;2.45;;;9.50;99.90;;;;;;4962209;28;20066;-83
2023/03/03 11:31:04;;;;;;;7.53;1.30;;;9.40;99.90;;;;;;4972290;28;20054;-83
2023/03/03 11:34:11;;;;;;;6.75;1.00;;;9.70;99.90;;;;;;4967098;28;20051;-84
2023/03/03 11:37:05;;;;;;;7.03;1.35;;;9.70;99.90;;;;;;4969473;28;20054;-85
2023/03/03 11:39:55;;;;;;;10.23;1.50;;;9.90;99.90;;;;;;4971519;28;20499;-85
2023/03/03 11:42:50;;;;;;;6.45;1.08;;;10.30;99.90;;;;;;4965522;28;20141;-83
2023/03/03 11:45:44;;;;;;;14.25;1.50;;;10.50;99.90;;;;;;4971209;28;20046;-83
2023/03/03 11:48:37;;;;;;;10.98;1.90;;;10.30;99.90;;;;;;4971867;28;20047;-84
2023/03/03 11:51:31;;;;;;;8.60;1.55;;;10.10;99.90;;;;;;4967787;28;20058;-84
2023/03/03 11:54:27;;;;;;;10.82;1.65;;;10.00;99.90;;;;;;4992534;28;20046;-83
2023/03/03 11:57:18;;;;;;;10.07;1.60;;;10.10;99.90;;;;;;4993307;28;20061;-84
2023/03/03 12:00:30;;;;;;;8.15;1.50;;;10.10;99.90;;;;;;5018035;28;20133;-85
2023/03/03 12:03:29;;;;;;;13.55;2.65;;;10.10;99.90;;;;;;4994814;28;20041;-84
2023/03/03 12:06:33;;;;;;;13.85;2.10;;;9.90;99.90;;;;;;4983578;28;20160;-84
2023/03/03 12:09:53;;;;;;;14.60;2.40;;;9.90;99.90;;;;;;5001508;28;20045;-84
2023/03/03 12:12:46;;;;;;;15.52;2.88;;;9.90;99.90;;;;;;5001690;28;20525;-84
2023/03/03 12:15:50;;;;;;;13.88;2.95;;;9.90;99.90;;;;;;5016643;28;20050;-85
2023/03/03 12:19:07;;;;;;;19.13;4.38;;;9.80;99.90;;;;;;5013708;28;20086;-84
2023/03/03 12:21:52;;;;;;;;;;;9.70;99.90;;;;;;4994657;28;20053;-85
2023/03/03 12:25:16;;;;;;;18.15;3.08;;;9.70;99.90;;;;;;5013473;28;19967;-85
2023/03/03 12:28:14;;;;;;;20.45;3.80;;;9.70;99.90;;;;;;5018701;28;20050;-86
2023/03/03 12:31:32;;;;;;;20.17;3.20;;;9.60;99.90;;;;;;4988003;28;20041;-85
2023/03/03 12:34:40;;;;;;;21.50;3.08;;;9.50;99.90;;;;;;5013797;28;20053;-85
2023/03/03 12:37:30;;;;;;;17.50;2.78;;;9.40;99.90;;;;;;4998766;28;20069;-85
2023/03/03 12:40:30;;;;;;;14.38;3.08;;;9.60;99.90;;;;;;5003452;28;20050;-83
2023/03/03 12:43:47;;;;;;;16.58;3.17;;;9.60;99.90;;;;;;4985658;28;20057;-83
2023/03/03 12:46:54;;;;;;;19.63;4.05;;;9.60;99.90;;;;;;4997269;28;20133;-83
2023/03/03 12:50:08;;;;;;;24.13;3.30;;;9.50;99.90;;;;;;4986887;28;20061;-83
2023/03/03 12:53:06;;;;;;;12.10;2.70;;;9.40;99.90;;;;;;4993899;28;20054;-83
2023/03/03 12:55:57;;;;;;;24.23;3.90;;;9.20;99.90;;;;;;4992539;28;20046;-83
2023/03/03 12:59:16;;;;;;;18.05;3.00;;;9.20;99.90;;;;;;4993847;28;20050;-83
2023/03/03 13:02:21;;;;;;;14.05;3.53;;;9.20;99.90;;;;;;4996635;28;20106;-83
2023/03/03 13:05:16;;;;;;;17.42;3.20;;;9.10;99.90;;;;;;4981357;28;20050;-84
2023/03/03 13:08:21;;;;;;;21.58;4.20;;;9.10;99.90;;;;;;4995832;28;20057;-84
2023/03/03 13:11:35;;;;;;;22.35;4.78;;;9.00;99.90;;;;;;4995477;28;20058;-84
2023/03/03 13:14:47;;;;;;;21.55;4.55;;;9.00;99.90;;;;;;4995236;28;20077;-85
2023/03/03 13:17:55;;;;;;;27.55;4.53;;;8.90;99.90;;;;;;4993216;28;20061;-85
2023/03/03 13:21:10;;;;;;;18.33;3.30;;;8.90;99.90;;;;;;4994498;28;20098;-85
2023/03/03 13:23:59;;;;;;;19.30;3.80;;;8.90;99.90;;;;;;4990506;28;20550;-84
2023/03/03 13:26:51;;;;;;;20.10;3.13;;;8.80;99.90;;;;;;4996084;28;20054;-83
2023/03/03 13:30:01;;;;;;;21.35;3.83;;;8.80;99.90;;;;;;4993199;28;20057;-84
2023/03/03 13:32:53;;;;;;;23.45;5.20;;;8.90;99.90;;;;;;4997416;28;20126;-85
2023/03/03 13:36:06;;;;;;;17.63;4.07;;;8.90;99.90;;;;;;4992537;28;20061;-83
2023/03/03 13:39:01;;;;;;;34.95;6.30;;;8.90;99.90;;;;;;4992650;28;20392;-90
2023/03/03 13:42:05;;;;;;;20.73;3.40;;;8.80;99.90;;;;;;4994393;28;20050;-79
2023/03/03 13:44:53;;;;;;;24.33;4.47;;;8.60;99.90;;;;;;4993869;28;20058;-82
2023/03/03 13:48:00;;;;;;;22.35;3.05;;;8.60;99.90;;;;;;4994158;28;20058;-82
2023/03/03 13:51:24;;;;;;;21.98;3.95;;;8.50;99.90;;;;;;4997012;28;20085;-83
2023/03/03 13:54:34;;;;;;;20.05;4.15;;;8.50;99.90;;;;;;4997660;28;20046;-85
2023/03/03 13:57:51;;;;;;;18.73;3.55;;;8.60;99.90;;;;;;5005673;28;20057;-83
2023/03/03 14:00:37;;;;;;;17.13;2.78;;;8.70;99.90;;;;;;4994510;28;20050;-82
2023/03/03 14:04:00;;;;;;;25.25;4.15;;;8.60;99.90;;;;;;4994054;28;20090;-85
2023/03/03 14:06:56;;;;;;;19.52;4.47;;;8.60;99.90;;;;;;4993663;28;20088;-83
2023/03/03 14:10:09;;;;;;;18.45;3.65;;;8.60;99.90;;;;;;4993259;28;20481;-89
2023/03/03 14:13:11;;;;;;;15.15;4.60;;;8.50;99.90;;;;;;4992861;28;20487;-85
2023/03/03 14:16:06;;;;;;;23.40;3.38;;;8.50;99.90;;;;;;4993212;28;20133;-82
2023/03/03 14:19:10;;;;;;;24.48;3.78;;;8.50;99.90;;;;;;4992537;28;20085;-80
2023/03/03 14:22:13;;;;;;;32.05;4.75;;;8.40;99.90;;;;;;4992999;28;20090;-80
2023/03/03 14:25:08;;;;;;;18.88;4.25;;;8.50;99.90;;;;;;4979612;28;20097;-83
2023/03/03 14:28:12;;;;;;;23.08;3.45;;;8.40;99.90;;;;;;4994031;28;20058;-80
2023/03/03 14:31:44;;;;;;;24.98;3.72;;;8.40;99.90;;;;;;4993206;28;20062;-87
2023/03/03 14:34:40;;;;;;;26.65;4.55;;;8.30;99.90;;;;;;4953032;29;20054;-81
2023/03/03 14:37:28;;;;;;;22.30;3.13;;;8.30;99.90;;;;;;4993198;28;20050;-77
2023/03/03 14:40:28;;;;;;;25.73;4.05;;;8.20;99.90;;;;;;4995678;28;20057;-79
2023/03/03 14:43:36;;;;;;;25.60;3.40;;;8.30;99.90;;;;;;4996080;28;20169;-87
2023/03/03 14:46:35;;;;;;;25.60;4.05;;;8.10;99.90;;;;;;4993927;28;20077;-80
2023/03/03 14:49:31;;;;;;;28.48;3.83;;;8.10;99.90;;;;;;4984873;28;20050;-78
2023/03/03 14:52:24;;;;;;;27.38;4.10;;;8.10;99.90;;;;;;5003101;28;20088;-90
2023/03/03 14:55:32;;;;;;;25.38;5.30;;;8.10;99.90;;;;;;5015447;28;20108;-82
2023/03/03 14:58:38;;;;;;;23.52;3.80;;;8.20;99.90;;;;;;5010198;28;20052;-84
2023/03/03 15:01:35;;;;;;;15.95;3.53;;;8.10;99.90;;;;;;5008593;28;20053;-81
2023/03/03 15:04:26;;;;;;;26.40;4.32;;;8.10;99.90;;;;;;5009978;28;20133;-77
2023/03/03 15:07:34;;;;;;;28.25;3.63;;;8.10;99.90;;;;;;5008729;28;20046;-79
2023/03/03 15:10:33;;;;;;;23.38;3.65;;;8.10;99.90;;;;;;5009502;28;20046;-79
2023/03/03 15:13:19;;;;;;;25.92;3.35;;;8.00;99.90;;;;;;5009094;28;20050;-77
2023/03/03 15:16:30;;;;;;;22.00;3.55;;;8.00;99.90;;;;;;5010263;28;20502;-77
2023/03/03 15:19:37;;;;;;;19.90;4.32;;;7.90;99.90;;;;;;5010582;28;20085;-77